createdAt,value
2023-05-14T00:00:11.254Z,78.84
2023-05-14T00:05:10.268Z,78.55
2023-05-14T00:10:09.458Z,78.78
2023-05-14T00:15:08.950Z,79.17
2023-05-14T00:20:12.188Z,79.50
2023-05-14T00:25:11.241Z,78.61
2023-05-14T00:30:10.641Z,78.12
2023-05-14T00:35:12.502Z,78.73
2023-05-14T00:40:13.075Z,79.25
2023-05-14T00:45:11.870Z,79.59
2023-05-14T00:50:12.240Z,78.66
2023-05-14T00:55:16.409Z,80.42
2023-05-14T01:00:15.750Z,81.22
2023-05-14T01:05:14.755Z,79.01
2023-05-14T01:10:54.983Z,77.75
2023-05-14T01:15:56.711Z,78.28
2023-05-14T01:20:58.569Z,80.11
2023-05-14T01:25:57.310Z,80.63
2023-05-14T01:30:59.174Z,78.59
2023-05-14T01:35:58.641Z,79.35
2023-05-14T01:40:58.571Z,79.93
2023-05-14T01:45:57.428Z,80.07
2023-05-14T01:50:57.204Z,79.31
2023-05-14T01:55:56.174Z,78.71
2023-05-14T02:00:55.006Z,78.13
2023-05-14T02:05:53.831Z,79.14
2023-05-14T02:10:52.740Z,81.34
2023-05-14T02:15:51.818Z,80.41
2023-05-14T02:20:50.584Z,81.70
2023-05-14T02:25:49.371Z,80.06
2023-05-14T02:30:48.365Z,80.76
2023-05-14T02:35:47.128Z,80.06
2023-05-14T02:40:45.891Z,80.95
2023-05-14T02:45:44.726Z,79.97
2023-05-14T02:50:43.968Z,82.09
2023-05-14T02:55:42.969Z,81.75
2023-05-14T03:00:41.763Z,81.63
2023-05-14T03:05:41.054Z,81.21
2023-05-14T03:10:39.796Z,81.67
2023-05-14T03:15:38.686Z,82.57
2023-05-14T03:20:37.964Z,82.47
2023-05-14T03:25:37.967Z,80.94
2023-05-14T03:30:36.943Z,80.52
2023-05-14T03:35:35.920Z,80.62
2023-05-14T03:40:34.874Z,80.30
2023-05-14T03:45:34.087Z,80.81
2023-05-14T03:50:33.073Z,81.49
2023-05-14T03:55:31.904Z,80.64
2023-05-14T04:00:30.952Z,82.03
2023-05-14T04:05:29.692Z,82.83
2023-05-14T04:10:32.269Z,83.17
2023-05-14T04:15:32.312Z,81.91
2023-05-14T04:20:31.200Z,81.03
2023-05-14T04:25:30.521Z,81.60
2023-05-14T04:30:29.758Z,81.67
2023-05-14T04:35:28.835Z,80.34
2023-05-14T04:40:27.835Z,79.23
2023-05-14T04:45:26.845Z,78.11
2023-05-14T04:50:26.125Z,76.26
2023-05-14T04:55:25.044Z,74.15
2023-05-14T05:00:24.187Z,74.90
2023-05-14T05:05:23.858Z,73.77
2023-05-14T05:10:22.988Z,72.41
2023-05-14T05:15:23.291Z,70.10
2023-05-14T05:20:25.122Z,67.61
2023-05-14T05:25:24.211Z,67.59
2023-05-14T05:30:23.258Z,67.83
2023-05-14T05:35:22.202Z,67.51
2023-05-14T05:40:21.114Z,67.07
2023-05-14T05:45:20.004Z,67.00
2023-05-14T05:50:19.956Z,67.27
2023-05-14T05:55:19.235Z,67.74
2023-05-14T06:00:18.988Z,65.09
2023-05-14T06:05:18.896Z,63.91
2023-05-14T06:10:17.934Z,63.36
2023-05-14T06:15:20.116Z,62.02
2023-05-14T06:20:19.339Z,72.18
2023-05-14T06:25:18.553Z,63.68
2023-05-14T06:30:17.375Z,60.12
2023-05-14T06:35:16.225Z,57.69
2023-05-14T06:40:18.083Z,57.17
2023-05-14T06:45:16.967Z,55.71
2023-05-14T06:50:15.798Z,56.27
2023-05-14T06:55:14.673Z,54.31
2023-05-14T07:00:14.607Z,55.73
2023-05-14T07:05:13.556Z,56.36
2023-05-14T07:10:12.797Z,53.93
2023-05-14T07:15:12.321Z,52.48
2023-05-14T07:20:11.629Z,53.04
2023-05-14T07:25:10.567Z,54.18
2023-05-14T07:30:09.627Z,53.11
2023-05-14T07:35:09.106Z,54.42
2023-05-14T07:40:08.498Z,53.70
2023-05-14T07:45:08.890Z,53.74
2023-05-14T07:50:10.695Z,52.85
2023-05-14T07:55:09.893Z,54.59
2023-05-14T08:00:09.273Z,54.22
2023-05-14T08:05:14.254Z,52.44
2023-05-14T08:10:13.048Z,53.94
2023-05-14T08:15:12.435Z,52.27
2023-05-14T08:20:12.061Z,53.80
2023-05-14T08:25:11.084Z,54.73
2023-05-14T08:30:10.322Z,54.71
2023-05-14T08:35:09.372Z,54.28
2023-05-14T08:40:08.835Z,55.39
2023-05-14T08:45:16.953Z,54.69
2023-05-14T08:50:22.701Z,53.47
2023-05-14T08:55:22.597Z,53.30
2023-05-14T09:00:21.701Z,54.12
2023-05-14T09:05:22.147Z,51.29
2023-05-14T09:10:21.559Z,49.43
2023-05-14T09:15:20.552Z,50.61
2023-05-14T09:20:19.848Z,47.29
2023-05-14T09:25:18.601Z,47.63
2023-05-14T09:30:17.760Z,49.63
2023-05-14T09:35:21.749Z,46.38
2023-05-14T09:40:23.653Z,45.70
2023-05-14T09:45:23.296Z,44.93
2023-05-14T09:50:22.303Z,45.31
2023-05-14T09:55:22.142Z,45.11
2023-05-14T10:00:23.219Z,46.28
2023-05-14T10:05:23.640Z,46.89
2023-05-14T10:10:26.872Z,47.43
2023-05-14T10:15:43.638Z,50.96
2023-05-14T10:20:43.229Z,49.46
2023-05-14T10:25:42.528Z,49.55
2023-05-14T10:30:46.290Z,48.90
2023-05-14T10:36:00.511Z,50.29
2023-05-14T10:41:04.404Z,50.77
2023-05-14T10:46:04.317Z,49.46
2023-05-14T10:51:03.312Z,48.85
2023-05-14T10:56:09.288Z,50.09
2023-05-14T11:01:09.233Z,47.81
2023-05-14T11:06:09.356Z,48.24
2023-05-14T11:11:09.694Z,46.86
2023-05-14T11:16:21.547Z,46.52
2023-05-14T11:21:21.805Z,45.20
2023-05-14T11:26:21.725Z,43.38
2023-05-14T11:31:22.359Z,43.70
2023-05-14T11:36:22.020Z,43.34
2023-05-14T11:41:22.879Z,42.53
2023-05-14T11:46:22.519Z,43.79
2023-05-14T11:51:21.597Z,41.23
2023-05-14T11:56:24.641Z,42.73
2023-05-14T12:01:23.768Z,42.80
2023-05-14T12:06:31.552Z,42.16
2023-05-14T12:11:36.055Z,42.94
2023-05-14T12:16:36.815Z,41.89
2023-05-14T12:21:37.681Z,42.39
2023-05-14T12:26:38.715Z,41.23
2023-05-14T12:31:44.788Z,40.52
2023-05-14T12:36:44.350Z,39.34
2023-05-14T12:41:43.104Z,38.17
2023-05-14T12:46:41.970Z,37.52
2023-05-14T12:51:41.033Z,38.43
2023-05-14T12:56:39.882Z,38.35
2023-05-14T13:01:38.832Z,39.93
2023-05-14T13:06:37.841Z,39.62
2023-05-14T13:11:36.596Z,39.02
2023-05-14T13:16:35.693Z,39.45
2023-05-14T13:21:34.603Z,40.36
2023-05-14T13:26:33.639Z,41.78
2023-05-14T13:31:32.563Z,41.58
2023-05-14T13:36:32.317Z,41.19
2023-05-14T13:41:34.936Z,42.50
2023-05-14T13:46:33.848Z,43.71
2023-05-14T13:51:32.731Z,46.00
2023-05-14T13:56:31.632Z,44.48
2023-05-14T14:01:33.400Z,45.29
2023-05-14T14:06:33.269Z,45.19
2023-05-14T14:11:32.140Z,44.61
2023-05-14T14:16:31.179Z,47.94
2023-05-14T14:21:30.035Z,47.82
2023-05-14T14:26:29.289Z,46.17
2023-05-14T14:31:28.204Z,46.42
2023-05-14T14:36:27.000Z,44.67
2023-05-14T14:41:26.662Z,44.65
2023-05-14T14:46:25.499Z,46.41
2023-05-14T14:51:24.543Z,45.82
2023-05-14T14:56:23.667Z,45.59
2023-05-14T15:01:22.966Z,44.57
2023-05-14T15:06:21.758Z,43.62
2023-05-14T15:11:20.929Z,43.83
2023-05-14T15:16:19.755Z,44.44
2023-05-14T15:21:18.591Z,44.21
2023-05-14T15:26:17.388Z,44.79
2023-05-14T15:31:16.504Z,44.27
2023-05-14T15:36:15.390Z,44.48
2023-05-14T15:41:14.387Z,44.72
2023-05-14T15:46:13.279Z,45.12
2023-05-14T15:51:12.730Z,45.30
2023-05-14T15:56:11.656Z,45.50
2023-05-14T16:01:10.519Z,46.04
2023-05-14T16:06:09.999Z,47.25
2023-05-14T16:11:08.825Z,45.82
2023-05-14T16:16:08.348Z,51.02
2023-05-14T16:21:07.180Z,51.47
2023-05-14T16:26:06.459Z,54.81
2023-05-14T16:31:05.253Z,56.46
2023-05-14T16:36:04.126Z,58.42
2023-05-14T16:41:03.308Z,60.85
2023-05-14T16:46:04.806Z,60.20
2023-05-14T16:51:06.863Z,60.97
2023-05-14T16:56:06.718Z,61.55
2023-05-14T17:01:08.694Z,62.58
2023-05-14T17:06:10.092Z,65.30
2023-05-14T17:11:09.245Z,63.04
2023-05-14T17:16:08.240Z,60.79
2023-05-14T17:21:07.565Z,60.77
2023-05-14T17:26:06.505Z,61.82
2023-05-14T17:31:05.454Z,62.83
2023-05-14T17:36:04.440Z,61.35
2023-05-14T17:41:03.200Z,61.24
2023-05-14T17:46:02.162Z,62.72
2023-05-14T17:51:01.180Z,64.12
2023-05-14T17:56:00.152Z,63.84
2023-05-14T18:00:59.093Z,66.32
2023-05-14T18:05:58.798Z,66.28
2023-05-14T18:10:58.600Z,66.77
2023-05-14T18:15:57.625Z,67.10
2023-05-14T18:20:56.596Z,67.31
2023-05-14T18:25:55.787Z,70.54
2023-05-14T18:30:54.605Z,70.70
2023-05-14T18:35:53.697Z,70.78
2023-05-14T18:40:52.567Z,69.39
2023-05-14T18:45:54.493Z,68.86
2023-05-14T18:50:57.652Z,68.44
2023-05-14T18:55:56.563Z,65.48
2023-05-14T19:00:59.073Z,65.00
2023-05-14T19:05:58.176Z,64.21
2023-05-14T19:10:56.946Z,64.61
2023-05-14T19:15:55.996Z,65.45
2023-05-14T19:20:56.628Z,64.44
2023-05-14T19:25:55.568Z,64.26
2023-05-14T19:30:54.500Z,65.25
2023-05-14T19:35:53.479Z,64.11
2023-05-14T19:40:56.876Z,64.23
2023-05-14T19:45:55.736Z,64.87
2023-05-14T19:50:54.515Z,66.54
2023-05-14T19:55:53.252Z,67.65
2023-05-14T20:00:53.341Z,67.25
2023-05-14T20:05:53.395Z,67.38
2023-05-14T20:10:52.366Z,67.05
2023-05-14T20:15:51.406Z,67.29
2023-05-14T20:20:50.200Z,67.18
2023-05-14T20:25:49.009Z,67.06
2023-05-14T20:30:47.833Z,66.97
2023-05-14T20:35:46.623Z,68.83
2023-05-14T20:40:45.585Z,68.35
2023-05-14T20:45:44.352Z,67.60
2023-05-14T20:50:43.532Z,68.68
2023-05-14T20:55:42.428Z,67.82
2023-05-14T21:00:41.279Z,68.66
2023-05-14T21:05:41.560Z,73.58
2023-05-14T21:10:40.412Z,64.40
2023-05-14T21:15:39.371Z,61.83
2023-05-14T21:20:38.254Z,62.83
2023-05-14T21:25:37.043Z,65.10
2023-05-14T21:30:35.763Z,69.59
2023-05-14T21:35:34.538Z,70.14
2023-05-14T21:40:33.260Z,69.44
2023-05-14T21:45:32.260Z,73.11
2023-05-14T21:50:31.247Z,73.37
2023-05-14T21:55:30.059Z,74.47
2023-05-14T22:00:28.962Z,73.67
2023-05-14T22:05:28.076Z,73.35
2023-05-14T22:10:27.012Z,73.72
2023-05-14T22:15:26.211Z,74.14
2023-05-14T22:20:25.334Z,73.27
2023-05-14T22:25:24.679Z,72.18
2023-05-14T22:30:23.837Z,71.84
2023-05-14T22:35:22.815Z,72.36
2023-05-14T22:40:21.855Z,73.48
2023-05-14T22:45:20.624Z,73.21
2023-05-14T22:50:19.324Z,75.89
2023-05-14T22:55:18.171Z,75.43
2023-05-14T23:00:17.191Z,74.32
2023-05-14T23:05:15.942Z,74.54
2023-05-14T23:10:14.825Z,74.51
2023-05-14T23:15:13.754Z,76.59
2023-05-14T23:20:13.001Z,76.77
2023-05-14T23:25:11.769Z,75.83
2023-05-14T23:30:11.006Z,74.84
2023-05-14T23:35:10.395Z,76.16
2023-05-14T23:40:09.866Z,76.00
2023-05-14T23:45:09.041Z,76.05
2023-05-14T23:50:08.506Z,76.79
2023-05-14T23:55:07.671Z,76.71
